createdAt,value
2019-01-18T00:00:48.501Z,32.3
2019-01-18T00:01:39.126Z,32.3
2019-01-18T00:02:27.785Z,32.3
2019-01-18T00:03:33.949Z,32.3
2019-01-18T00:04:09.550Z,32.3
2019-01-18T00:04:59.099Z,32.3
2019-01-18T00:05:49.386Z,32.3
2019-01-18T00:06:39.746Z,32.3
2019-01-18T00:07:29.501Z,32.2
2019-01-18T00:08:19.315Z,32.3
2019-01-18T00:09:09.063Z,32.2
2019-01-18T00:09:59.113Z,32.3
2019-01-18T00:10:49.178Z,32.2
2019-01-18T00:11:39.233Z,32.2
2019-01-18T00:12:30.128Z,32.2
2019-01-18T00:13:19.343Z,32.2
2019-01-18T00:14:09.974Z,32.2
2019-01-18T00:15:00.018Z,32.2
2019-01-18T00:15:50.660Z,32.2
2019-01-18T00:16:39.025Z,32.2
2019-01-18T00:17:29.920Z,32.2
2019-01-18T00:18:19.691Z,32.2
2019-01-18T00:19:09.750Z,32.2
2019-01-18T00:20:00.955Z,32.2
2019-01-18T00:20:49.600Z,32.2
2019-01-18T00:21:39.960Z,32.2
2019-01-18T00:22:30.806Z,32.1
2019-01-18T00:23:21.137Z,32.2
2019-01-18T00:24:10.914Z,32.1
2019-01-18T00:25:01.005Z,32.1
2019-01-18T00:25:50.500Z,32.1
2019-01-18T00:26:41.119Z,32.1
2019-01-18T00:27:31.174Z,32.1
2019-01-18T00:28:21.582Z,32.1
2019-01-18T00:29:11.010Z,32.1
2019-01-18T00:30:01.324Z,32.1
2019-01-18T00:30:51.124Z,32.1
2019-01-18T00:31:40.599Z,32.1
2019-01-18T00:32:30.947Z,32.1
2019-01-18T00:33:21.597Z,32.1
2019-01-18T00:34:11.327Z,32.1
2019-01-18T00:35:01.692Z,32.1
2019-01-18T00:35:51.746Z,32.1
2019-01-18T00:36:41.511Z,32.1
2019-01-18T00:37:31.846Z,32.1
2019-01-18T00:38:21.389Z,32.1
2019-01-18T00:39:11.999Z,32.1
2019-01-18T00:40:01.767Z,32.1
2019-01-18T00:40:51.791Z,32.1
2019-01-18T03:08:44.288Z,39.7
2019-01-18T03:09:33.323Z,39.8
2019-01-18T03:10:24.629Z,39.8
2019-01-18T03:11:14.757Z,39.9
2019-01-18T03:12:04.270Z,39.9
2019-01-18T03:12:55.096Z,39.9
2019-01-18T03:13:44.347Z,40
2019-01-18T03:14:35.191Z,39.9
2019-01-18T03:15:25.049Z,40
2019-01-18T03:16:13.980Z,40
2019-01-18T03:17:04.017Z,40
2019-01-18T03:17:54.679Z,40.1
2019-01-18T03:18:44.773Z,40.1
2019-01-18T03:19:35.604Z,40.1
2019-01-18T03:20:25.386Z,40.2
2019-01-18T03:21:15.087Z,40.3
2019-01-18T03:22:19.261Z,40.3
2019-01-18T03:23:45.283Z,40.4
2019-01-18T03:24:35.466Z,40.4
2019-01-18T03:25:25.250Z,40.4
2019-01-18T03:26:15.233Z,40.4
2019-01-18T03:27:05.556Z,40.4
2019-01-18T03:27:55.646Z,40.4
2019-01-18T03:28:45.442Z,40.4
2019-01-18T03:29:35.991Z,40.4
2019-01-18T03:30:27.019Z,40.4
2019-01-18T03:31:16.014Z,40.4
2019-01-18T03:32:06.284Z,40.4
2019-01-18T03:32:56.519Z,40.4
2019-01-18T03:33:45.505Z,40.4
2019-01-18T03:34:36.350Z,40.4
2019-01-18T03:35:26.121Z,40.4
2019-01-18T03:36:15.919Z,40.4
2019-01-18T03:37:06.343Z,40.4
2019-01-18T03:37:56.350Z,40.4
2019-01-18T03:38:46.665Z,40.4
2019-01-18T03:39:36.777Z,40.4
2019-01-18T03:40:26.495Z,40.4
2019-01-18T03:41:15.787Z,40.4
2019-01-18T03:42:05.559Z,40.4
2019-01-18T03:42:56.540Z,40.4
2019-01-18T03:43:46.002Z,40.4
2019-01-18T03:44:35.704Z,40.4
2019-01-18T03:45:26.004Z,40.4
2019-01-18T03:46:17.157Z,40.4
2019-01-18T03:47:06.944Z,40.4
2019-01-18T03:47:56.429Z,40.4
2019-01-18T03:48:45.915Z,40.4
2019-01-18T03:49:37.351Z,40.4
2019-01-18T03:50:27.424Z,40.4
2019-01-18T03:51:16.877Z,40.4
2019-01-18T03:52:07.494Z,40.4
2019-01-18T03:52:57.847Z,40.4
2019-01-18T03:53:47.279Z,40.4
2019-01-18T03:54:37.486Z,40.4
2019-01-18T03:55:27.471Z,40.4
2019-01-18T03:56:17.778Z,40.4
2019-01-18T03:57:07.846Z,40.4
2019-01-18T03:57:57.616Z,40.4
2019-01-18T03:58:47.930Z,40.4
2019-01-18T03:59:37.771Z,40.4
2019-01-18T04:00:32.197Z,40.4
2019-01-18T04:01:18.197Z,40.4
2019-01-18T04:02:07.378Z,40.4
2019-01-18T04:02:58.624Z,40.4
2019-01-18T04:03:48.067Z,40.4
2019-01-18T04:04:37.854Z,40.4
2019-01-18T04:05:28.702Z,40.4
2019-01-18T04:06:19.030Z,40.4
2019-01-18T04:07:09.088Z,40.4
2019-01-18T04:07:58.278Z,40.4
2019-01-18T04:08:48.959Z,40.3
2019-01-18T04:09:39.203Z,40.4
2019-01-18T04:10:28.466Z,40.3
2019-01-18T04:11:18.772Z,40.4
2019-01-18T04:12:08.620Z,40.3
2019-01-18T04:12:58.352Z,40.3
2019-01-18T04:13:48.198Z,40.3
2019-01-18T04:14:38.222Z,40.3
2019-01-18T04:15:27.825Z,40.3
2019-01-18T04:16:18.651Z,40.3
2019-01-18T04:17:08.472Z,40.3
2019-01-18T04:17:58.573Z,40.3
2019-01-18T04:18:49.384Z,40.3
2019-01-18T04:19:39.320Z,40.3
2019-01-18T04:20:29.683Z,40.3
2019-01-18T04:21:19.737Z,40.3
2019-01-18T04:22:09.822Z,40.3
2019-01-18T04:22:59.894Z,40.3
2019-01-18T04:23:49.735Z,40.3
2019-01-18T04:24:39.977Z,40.3
2019-01-18T04:25:30.162Z,40.3
2019-01-18T04:26:20.064Z,40.3
2019-01-18T04:27:10.379Z,40.3
2019-01-18T04:27:59.925Z,40.3
2019-01-18T04:28:50.279Z,40.3
2019-01-18T04:29:39.199Z,40.3
2019-01-18T04:30:38.423Z,40.3
2019-01-18T04:31:20.709Z,40.3
2019-01-18T04:32:09.913Z,40.3
2019-01-18T04:33:00.292Z,40.3
2019-01-18T04:33:50.604Z,40.3
2019-01-18T04:34:40.631Z,40.3
2019-01-18T04:35:30.992Z,40.3
2019-01-18T04:36:20.829Z,40.3
2019-01-18T04:37:11.096Z,40.2
2019-01-18T04:38:00.955Z,40.2
2019-01-18T04:38:50.689Z,40.2
2019-01-18T04:39:40.434Z,40.2
2019-01-18T04:40:31.069Z,40.2
2019-01-18T04:41:20.842Z,40.2
2019-01-18T04:42:10.879Z,40.2
2019-01-18T04:43:00.681Z,40.2
2019-01-18T04:43:51.554Z,40.2
2019-01-18T04:44:41.356Z,40.2
2019-01-18T04:45:30.826Z,40.2
2019-01-18T04:46:21.168Z,40.2
2019-01-18T04:47:10.975Z,40.2
2019-01-18T04:48:01.266Z,40.2
2019-01-18T04:48:50.779Z,40.1
2019-01-18T04:49:40.894Z,40.1
2019-01-18T04:50:31.733Z,40.1
2019-01-18T04:51:21.760Z,40.1
2019-01-18T04:52:11.540Z,40.1
2019-01-18T04:53:01.350Z,40.1
2019-01-18T04:53:51.388Z,40.1
2019-01-18T04:54:41.438Z,40.1
2019-01-18T04:55:46.705Z,40.1
2019-01-18T04:56:21.537Z,40.1
2019-01-18T04:57:12.439Z,40.1
2019-01-18T04:58:01.445Z,40.1
2019-01-18T04:58:51.725Z,40.1
2019-01-18T04:59:42.067Z,40.1
2019-01-18T05:00:32.712Z,40.1
2019-01-18T05:01:22.771Z,40.1
2019-01-18T05:02:12.218Z,40.1
2019-01-18T05:03:02.572Z,40.1
2019-01-18T05:03:52.922Z,40.1
2019-01-18T05:04:42.467Z,40.1
2019-01-18T05:05:31.945Z,40.1
2019-01-18T05:06:21.417Z,40.1
2019-01-18T05:07:12.565Z,40.1
2019-01-18T05:08:02.368Z,40.1
2019-01-18T05:08:52.701Z,40.1
2019-01-18T05:09:42.455Z,40.1
2019-01-18T05:10:32.514Z,40.1
2019-01-18T05:11:23.394Z,40
2019-01-18T05:12:12.968Z,40
2019-01-18T05:13:03.566Z,40
2019-01-18T05:13:53.370Z,40
2019-01-18T05:14:43.104Z,40
2019-01-18T05:15:32.627Z,40
2019-01-18T05:16:23.806Z,40
2019-01-18T05:17:13.547Z,40
2019-01-18T05:18:03.397Z,40
2019-01-18T05:18:53.389Z,40
2019-01-18T05:19:45.202Z,39.9
2019-01-18T05:20:33.519Z,39.9
2019-01-18T05:21:23.556Z,39.9
2019-01-18T05:22:13.586Z,39.9
2019-01-18T05:23:03.942Z,39.9
2019-01-18T05:23:53.419Z,39.9
2019-01-18T05:24:51.221Z,39.9
2019-01-18T05:25:33.837Z,39.9
2019-01-18T05:26:23.893Z,39.9
2019-01-18T05:27:13.943Z,39.9
2019-01-18T05:28:03.451Z,39.9
2019-01-18T05:28:54.063Z,39.9
2019-01-18T05:29:42.478Z,39.9
2019-01-18T05:30:34.434Z,39.9
2019-01-18T05:31:24.198Z,39.9
2019-01-18T05:32:12.961Z,39.9
2019-01-18T05:33:04.148Z,39.9
2019-01-18T05:33:53.876Z,39.9
2019-01-18T05:34:44.251Z,39.9
2019-01-18T05:35:34.589Z,39.9
2019-01-18T05:36:24.643Z,39.9
2019-01-18T05:37:14.113Z,39.9
2019-01-18T05:38:04.475Z,39.9
2019-01-18T05:38:54.250Z,39.9
2019-01-18T05:39:44.553Z,39.9
2019-01-18T05:40:34.326Z,39.9
2019-01-18T05:41:24.695Z,39.9
2019-01-18T05:42:15.220Z,39.8
2019-01-18T05:43:05.279Z,39.8
2019-01-18T05:43:54.817Z,39.8
2019-01-18T05:44:45.584Z,39.8
2019-01-18T05:45:35.212Z,39.8
2019-01-18T05:46:24.780Z,39.8
2019-01-18T05:47:14.780Z,39.8
2019-01-18T05:48:05.045Z,39.8
2019-01-18T05:48:55.662Z,39.8
2019-01-18T05:49:45.487Z,39.8
2019-01-18T05:50:34.457Z,39.8
2019-01-18T05:51:25.307Z,39.8
2019-01-18T05:52:15.951Z,39.8
2019-01-18T05:53:05.937Z,39.8
2019-01-18T05:53:56.491Z,39.8
2019-01-18T05:54:45.514Z,39.8
2019-01-18T05:55:36.386Z,39.8
2019-01-18T05:56:26.149Z,39.8
2019-01-18T05:57:15.707Z,39.7
2019-01-18T05:58:05.451Z,39.7
2019-01-18T05:58:55.767Z,39.7
2019-01-18T05:59:46.129Z,39.8
2019-01-18T06:00:36.174Z,39.7
2019-01-18T06:01:28.844Z,39.7
2019-01-18T06:02:16.279Z,39.7
2019-01-18T06:03:06.902Z,39.7
2019-01-18T06:03:56.421Z,39.7
2019-01-18T06:04:46.706Z,39.7
2019-01-18T06:06:44.681Z,39.6
2019-01-18T06:07:34.492Z,39.7
2019-01-18T06:08:24.883Z,39.6
2019-01-18T06:09:14.888Z,39.7
2019-01-18T06:10:04.921Z,39.6
2019-01-18T06:10:54.961Z,39.7
2019-01-18T06:11:45.011Z,39.6
2019-01-18T06:12:35.123Z,39.6
2019-01-18T06:13:25.418Z,39.6
2019-01-18T06:14:14.621Z,39.6
2019-01-18T06:15:04.763Z,39.6
2019-01-18T06:15:55.371Z,39.6
2019-01-18T06:16:45.370Z,39.6
2019-01-18T06:17:35.705Z,39.6
2019-01-18T06:18:25.238Z,39.6
2019-01-18T06:19:15.514Z,39.6
2019-01-18T06:20:05.473Z,39.6
2019-01-18T06:20:55.880Z,39.6
2019-01-18T06:21:45.965Z,39.6
2019-01-18T06:22:36.025Z,39.6
2019-01-18T06:23:26.151Z,39.6
2019-01-18T06:24:15.350Z,39.6
2019-01-18T06:25:06.084Z,39.6
2019-01-18T06:25:55.998Z,39.6
2019-01-18T06:26:46.320Z,39.6
2019-01-18T06:27:35.890Z,39.5
2019-01-18T06:28:25.875Z,39.5
2019-01-18T06:29:16.444Z,39.5
2019-01-18T06:30:06.557Z,39.5
2019-01-18T06:31:03.215Z,39.5
2019-01-18T06:31:46.634Z,39.5
2019-01-18T06:32:36.389Z,39.5
2019-01-18T06:33:26.799Z,39.4
2019-01-18T06:34:16.592Z,39.5
2019-01-18T06:35:06.922Z,39.4
2019-01-18T06:35:56.404Z,39.4
2019-01-18T06:36:45.729Z,39.4
2019-01-18T06:37:36.531Z,39.4
2019-01-18T06:38:27.074Z,39.4
2019-01-18T06:39:17.136Z,39.4
2019-01-18T06:40:07.201Z,39.4
2019-01-18T06:40:57.231Z,39.3
2019-01-18T06:41:47.321Z,39.3
2019-01-18T06:42:36.823Z,39.3
2019-01-18T06:43:27.416Z,39.2
2019-01-18T06:44:17.483Z,39.1
2019-01-18T06:45:06.981Z,39.1
2019-01-18T06:45:57.581Z,39.1
2019-01-18T06:46:46.356Z,39.1
2019-01-18T06:47:37.433Z,39.1
2019-01-18T06:48:27.513Z,39.1
2019-01-18T06:49:17.531Z,39.1
2019-01-18T06:50:07.369Z,39.1
2019-01-18T06:50:57.908Z,39.1
2019-01-18T06:51:47.438Z,39.1
2019-01-18T06:52:37.810Z,39.1
2019-01-18T06:53:27.808Z,39.1
2019-01-18T06:54:18.135Z,39.1
2019-01-18T06:55:07.670Z,39.1
2019-01-18T06:55:58.265Z,39.1
2019-01-18T06:56:48.053Z,39
2019-01-18T06:57:38.112Z,39.1
2019-01-18T06:58:27.877Z,39
2019-01-18T06:59:18.263Z,39
2019-01-18T07:00:08.375Z,39
2019-01-18T07:00:58.068Z,39
2019-01-18T07:01:48.098Z,38.9
2019-01-18T07:02:38.170Z,38.9
2019-01-18T07:03:28.492Z,38.8
2019-01-18T07:04:18.617Z,38.7
2019-01-18T07:06:44.342Z,38.6
2019-01-18T07:07:33.522Z,38.4
2019-01-18T07:08:24.443Z,38.4
2019-01-18T07:09:14.767Z,38.4
2019-01-18T07:10:04.565Z,38.4
2019-01-18T07:10:54.592Z,38.3
2019-01-18T07:11:44.107Z,38.3
2019-01-18T07:12:34.429Z,38.2
2019-01-18T07:13:24.767Z,38.2
2019-01-18T07:14:14.344Z,38.1
2019-01-18T07:15:05.297Z,38
2019-01-18T07:15:55.193Z,37.9
2019-01-18T07:16:44.991Z,37.9
2019-01-18T07:17:34.537Z,37.9
2019-01-18T07:18:26.154Z,37.9
2019-01-18T07:19:15.149Z,37.9
2019-01-18T07:20:04.942Z,37.9
2019-01-18T07:20:55.005Z,37.8
2019-01-18T07:21:45.899Z,37.8
2019-01-18T07:22:35.099Z,37.8
2019-01-18T07:23:25.706Z,37.8
2019-01-18T07:24:16.089Z,37.8
2019-01-18T07:25:05.865Z,37.8
2019-01-18T07:25:55.165Z,37.8
2019-01-18T07:26:45.689Z,37.8
2019-01-18T07:27:35.571Z,37.8
2019-01-18T07:28:26.088Z,37.8
2019-01-18T07:29:16.410Z,37.8
2019-01-18T07:30:06.203Z,37.8
2019-01-18T07:30:55.378Z,37.8
2019-01-18T07:31:45.750Z,37.8
2019-01-18T07:32:35.813Z,37.8
2019-01-18T07:33:26.138Z,37.8
2019-01-18T07:34:16.730Z,37.8
2019-01-18T07:35:06.533Z,37.8
2019-01-18T07:35:56.843Z,37.7
2019-01-18T07:36:46.358Z,37.7
2019-01-18T07:37:36.203Z,37.7
2019-01-18T07:38:25.898Z,37.7
2019-01-18T07:39:22.400Z,37.7
2019-01-18T07:40:07.155Z,37.6
2019-01-18T07:40:56.370Z,37.6
2019-01-18T07:41:46.732Z,37.6
2019-01-18T07:42:37.332Z,37.6
2019-01-18T07:43:27.430Z,37.5
2019-01-18T07:44:17.228Z,37.5
2019-01-18T07:45:07.527Z,37.5
2019-01-18T07:45:56.730Z,37.6
2019-01-18T07:46:47.391Z,37.6
2019-01-18T07:47:37.122Z,37.6
2019-01-18T07:48:27.467Z,37.7
2019-01-18T07:49:17.280Z,37.8
2019-01-18T07:50:07.074Z,37.8
2019-01-18T07:50:56.489Z,37.8
2019-01-18T07:51:47.439Z,37.8
2019-01-18T07:52:37.722Z,37.8
2019-01-18T07:53:27.789Z,37.8
2019-01-18T07:54:17.557Z,34.2
2019-01-18T07:55:07.064Z,19.4
2019-01-18T07:55:57.434Z,14
2019-01-18T07:56:48.277Z,12.6
2019-01-18T07:57:37.811Z,12.5
2019-01-18T07:58:27.561Z,13.1
2019-01-18T07:59:18.149Z,26.9
2019-01-18T08:00:08.266Z,37.8
2019-01-18T08:00:59.983Z,42.9
2019-01-18T08:01:47.802Z,44.3
2019-01-18T08:02:38.139Z,44.5
2019-01-18T08:03:28.214Z,44.3
2019-01-18T08:04:17.709Z,44
2019-01-18T08:05:08.373Z,43.7
2019-01-18T08:05:58.083Z,43.4
2019-01-18T08:06:48.408Z,43.2
2019-01-18T08:07:37.928Z,43.1
2019-01-18T08:08:28.248Z,42.9
2019-01-18T08:09:19.178Z,42.8
2019-01-18T08:10:08.631Z,42.7
2019-01-18T08:10:59.011Z,42.5
2019-01-18T08:11:48.533Z,42.4
2019-01-18T08:12:38.253Z,42.3
2019-01-18T08:13:28.601Z,41.4
2019-01-18T08:14:19.226Z,40.4
2019-01-18T08:15:09.551Z,46.9
2019-01-18T08:15:59.600Z,49.9
2019-01-18T08:16:49.360Z,48.8
2019-01-18T08:17:39.743Z,46.8
2019-01-18T08:18:28.928Z,45.7
2019-01-18T08:19:19.565Z,45
2019-01-18T08:20:09.319Z,45
2019-01-18T08:20:59.684Z,47.8
2019-01-18T08:21:50.019Z,50
2019-01-18T08:22:39.235Z,50.8
2019-01-18T08:23:29.270Z,50.9
2019-01-18T08:24:19.600Z,50.8
2019-01-18T08:25:09.681Z,50.6
2019-01-18T08:25:59.712Z,50.4
2019-01-18T08:26:49.827Z,50.4
2019-01-18T08:27:39.567Z,50.6
2019-01-18T08:28:30.167Z,50.9
2019-01-18T08:29:20.254Z,51.2
2019-01-18T08:30:09.802Z,51.4
2019-01-18T08:31:00.345Z,51.7
2019-01-18T08:31:50.404Z,51.9
2019-01-18T08:32:40.479Z,52.3
2019-01-18T08:33:29.984Z,52.7
2019-01-18T08:34:19.545Z,53.1
2019-01-18T08:35:10.419Z,53.5
2019-01-18T08:36:00.206Z,53.8
2019-01-18T08:36:50.499Z,53.9
2019-01-18T08:37:40.797Z,54
2019-01-18T08:38:29.856Z,54
2019-01-18T08:39:20.654Z,54
2019-01-18T08:40:10.975Z,53.8
2019-01-18T08:41:01.379Z,53.6
2019-01-18T08:41:50.862Z,53.3
2019-01-18T08:42:41.163Z,53.2
2019-01-18T08:43:30.661Z,53
2019-01-18T08:44:20.996Z,52.9
2019-01-18T08:45:10.831Z,52.8
2019-01-18T08:46:00.061Z,52.8
2019-01-18T08:46:50.976Z,52.8
2019-01-18T08:47:41.011Z,52.8
2019-01-18T08:48:31.343Z,52.8
2019-01-18T08:49:20.878Z,52.8
2019-01-18T08:50:11.451Z,52.6
2019-01-18T08:51:01.706Z,52.5
2019-01-18T08:51:50.771Z,52.3
2019-01-18T08:52:41.833Z,52
2019-01-18T08:53:31.124Z,51.8
2019-01-18T08:54:22.210Z,51.7
2019-01-18T08:55:11.733Z,51.7
2019-01-18T08:56:02.053Z,51.7
2019-01-18T08:56:51.828Z,51.7
2019-01-18T08:57:41.953Z,51.7
2019-01-18T08:58:31.469Z,51.6
2019-01-18T08:59:21.500Z,51.5
2019-01-18T09:00:11.558Z,51.4
2019-01-18T09:01:01.270Z,51.4
2019-01-18T09:01:52.777Z,51.3
2019-01-18T09:02:42.240Z,51.2
2019-01-18T09:03:32.577Z,51.1
2019-01-18T09:04:21.796Z,50.8
2019-01-18T09:05:13.492Z,50.5
2019-01-18T09:06:02.763Z,50.3
2019-01-18T09:06:52.062Z,50
2019-01-18T09:07:42.023Z,49.9
2019-01-18T09:08:32.677Z,49.8
2019-01-18T09:09:22.740Z,49.6
2019-01-18T09:10:13.027Z,49.5
2019-01-18T09:11:02.812Z,49.4
2019-01-18T09:11:52.612Z,49.2
2019-01-18T09:12:43.482Z,49
2019-01-18T09:13:33.524Z,48.8
2019-01-18T09:14:25.307Z,48.5
2019-01-18T09:15:12.827Z,48.3
2019-01-18T09:16:02.857Z,48.1
2019-01-18T09:16:52.639Z,48
2019-01-18T09:17:43.559Z,47.9
2019-01-18T09:18:35.174Z,47.8
2019-01-18T09:19:22.827Z,47.6
2019-01-18T09:20:12.902Z,47.4
2019-01-18T09:21:03.779Z,47.3
2019-01-18T09:21:53.838Z,47.1
2019-01-18T09:22:43.888Z,47
2019-01-18T09:23:33.671Z,46.9
2019-01-18T09:24:23.789Z,46.9
2019-01-18T09:25:13.507Z,46.8
2019-01-18T09:26:03.864Z,46.8
2019-01-18T09:26:53.891Z,46.8
2019-01-18T09:27:43.966Z,46.7
2019-01-18T09:28:32.886Z,46.6
2019-01-18T09:29:24.674Z,46.6
2019-01-18T09:30:13.851Z,46.6
2019-01-18T09:31:04.734Z,46.6
2019-01-18T09:31:54.248Z,46.6
2019-01-18T09:32:44.005Z,46.5
2019-01-18T09:33:34.631Z,46.5
2019-01-18T09:34:24.968Z,46.4
2019-01-18T09:35:14.181Z,46.4
2019-01-18T09:36:04.518Z,46.3
2019-01-18T09:36:54.546Z,46.3
2019-01-18T09:37:44.945Z,46.3
2019-01-18T09:38:34.698Z,46.4
2019-01-18T09:39:24.470Z,46.3
2019-01-18T09:40:15.383Z,46.4
2019-01-18T09:41:04.023Z,46.4
2019-01-18T09:41:55.205Z,46.4
2019-01-18T09:42:44.734Z,46.4
2019-01-18T09:43:34.761Z,46.4
2019-01-18T09:44:25.367Z,46.4
2019-01-18T09:45:15.712Z,46.3
2019-01-18T09:46:04.651Z,46.1
2019-01-18T09:46:55.540Z,45.9
2019-01-18T09:47:45.587Z,45.6
2019-01-18T09:48:35.369Z,45.3
2019-01-18T09:49:25.440Z,45.1
2019-01-18T09:50:15.814Z,44.9
2019-01-18T09:51:05.809Z,44.8
2019-01-18T09:51:55.884Z,44.7
2019-01-18T09:52:45.942Z,44.5
2019-01-18T09:53:35.997Z,44.4
2019-01-18T09:54:25.241Z,44.2
2019-01-18T09:55:15.544Z,44.1
2019-01-18T09:56:06.184Z,44
2019-01-18T09:56:55.732Z,43.9
2019-01-18T09:57:45.592Z,43.9
2019-01-18T09:58:35.309Z,43.9
2019-01-18T09:59:25.689Z,43.9
2019-01-18T10:00:15.979Z,44
2019-01-18T10:01:07.476Z,43.9
2019-01-18T10:01:56.009Z,43.8
2019-01-18T10:02:46.085Z,43.8
2019-01-18T10:03:36.689Z,43.6
2019-01-18T10:04:26.745Z,43.4
2019-01-18T10:05:16.783Z,43.3
2019-01-18T10:07:43.971Z,43
2019-01-18T10:08:34.501Z,43
2019-01-18T10:09:24.844Z,42.9
2019-01-18T10:10:14.118Z,42.9
2019-01-18T10:11:03.628Z,42.8
2019-01-18T10:11:54.160Z,42.8
2019-01-18T10:12:44.281Z,42.8
2019-01-18T10:13:35.791Z,42.9
2019-01-18T10:14:24.901Z,43.1
2019-01-18T10:15:13.723Z,43.4
2019-01-18T10:16:04.870Z,43.7
2019-01-18T10:16:54.340Z,44.1
2019-01-18T10:17:44.855Z,44.5
2019-01-18T10:18:33.861Z,44.8
2019-01-18T10:19:25.237Z,44.8
2019-01-18T10:20:15.020Z,44.7
2019-01-18T10:21:05.446Z,44.6
2019-01-18T10:21:54.630Z,44.9
2019-01-18T10:22:43.878Z,45.3
2019-01-18T10:23:34.233Z,45.7
2019-01-18T10:24:27.095Z,46.1
2019-01-18T10:25:15.405Z,46.3
2019-01-18T10:26:05.429Z,46.4
2019-01-18T10:26:55.490Z,46.4
2019-01-18T10:27:45.810Z,46.5
2019-01-18T10:28:35.630Z,46.5
2019-01-18T10:29:32.605Z,46.6
2019-01-18T10:30:16.304Z,46.6
2019-01-18T10:31:06.114Z,46.6
2019-01-18T10:32:01.695Z,46.8
2019-01-18T10:32:45.913Z,47
2019-01-18T10:33:35.949Z,47.3
2019-01-18T10:34:26.598Z,47.6
2019-01-18T10:35:16.616Z,47.7
2019-01-18T10:36:05.568Z,47.7
2019-01-18T10:36:57.847Z,47.6
2019-01-18T10:37:46.818Z,47.6
2019-01-18T10:38:36.559Z,47.6
2019-01-18T10:39:26.871Z,47.8
2019-01-18T10:40:16.382Z,47.9
2019-01-18T10:41:07.006Z,48.1
2019-01-18T10:41:56.286Z,48.3
2019-01-18T10:42:46.856Z,48.5
2019-01-18T10:43:36.058Z,48.7
2019-01-18T10:44:27.330Z,48.8
2019-01-18T10:45:16.747Z,48.8
2019-01-18T10:46:07.079Z,48.9
2019-01-18T10:46:56.308Z,48.9
2019-01-18T10:47:46.641Z,48.9
2019-01-18T10:48:37.028Z,48.9
2019-01-18T10:49:27.306Z,48.9
2019-01-18T10:50:16.867Z,48.8
2019-01-18T10:51:07.718Z,48.6
2019-01-18T10:51:57.503Z,48.4
2019-01-18T10:52:46.986Z,48.3
2019-01-18T10:53:37.638Z,48.1
2019-01-18T10:54:27.374Z,48
2019-01-18T10:55:18.025Z,48
2019-01-18T10:56:07.260Z,48.1
2019-01-18T10:56:56.694Z,48.1
2019-01-18T10:57:47.634Z,48.1
2019-01-18T10:58:37.698Z,48
2019-01-18T10:59:27.998Z,48
2019-01-18T11:00:18.068Z,48.1
2019-01-18T11:01:07.828Z,48.1
2019-01-18T11:02:11.345Z,48.2
2019-01-18T11:02:47.905Z,48.3
2019-01-18T11:03:37.952Z,48.2
2019-01-18T11:04:28.035Z,48.1
2019-01-18T11:05:18.403Z,48.1
2019-01-18T11:06:08.710Z,48
2019-01-18T11:06:58.203Z,47.9
2019-01-18T11:07:48.242Z,47.9
2019-01-18T11:08:37.750Z,47.9
2019-01-18T11:09:28.374Z,48
2019-01-18T11:10:18.132Z,48.1
2019-01-18T11:11:07.914Z,48.2
2019-01-18T11:11:58.528Z,48.3
2019-01-18T11:12:48.844Z,48.3
2019-01-18T11:13:38.642Z,48.4
2019-01-18T11:14:28.724Z,48.6
2019-01-18T11:15:19.034Z,48.6
2019-01-18T11:16:08.824Z,48.7
2019-01-18T11:16:59.229Z,48.7
2019-01-18T11:17:49.492Z,48.6
2019-01-18T11:18:38.979Z,48.4
2019-01-18T11:19:29.056Z,48.3
2019-01-18T11:20:18.834Z,48.1
2019-01-18T11:21:09.707Z,47.8
2019-01-18T11:21:58.916Z,47.6
2019-01-18T11:22:49.269Z,47.5
2019-01-18T11:23:39.886Z,47.4
2019-01-18T11:24:29.387Z,47.3
2019-01-18T11:25:20.526Z,47.1
2019-01-18T11:26:09.556Z,46.9
2019-01-18T11:26:58.999Z,46.6
2019-01-18T11:27:49.891Z,46.5
2019-01-18T11:28:39.736Z,46.3
2019-01-18T11:29:29.713Z,46.2
2019-01-18T11:30:20.086Z,46.1
2019-01-18T11:31:09.861Z,45.9
2019-01-18T11:32:00.161Z,45.8
2019-01-18T11:32:49.397Z,45.6
2019-01-18T11:33:39.753Z,45.5
2019-01-18T11:34:29.496Z,45.4
2019-01-18T11:35:20.711Z,45.3
2019-01-18T11:36:09.888Z,45.1
2019-01-18T11:37:03.491Z,45.1
2019-01-18T11:37:49.746Z,45
2019-01-18T11:38:40.626Z,44.9
2019-01-18T11:39:30.725Z,44.9
2019-01-18T11:40:20.463Z,44.8
2019-01-18T11:41:10.535Z,44.8
2019-01-18T11:41:59.755Z,44.8
2019-01-18T11:42:50.425Z,44.8
2019-01-18T11:43:40.705Z,44.7
2019-01-18T11:44:31.060Z,44.6
2019-01-18T11:45:21.135Z,44.6
2019-01-18T11:46:10.325Z,44.6
2019-01-18T11:47:00.920Z,44.8
2019-01-18T11:47:51.017Z,44.9
2019-01-18T11:48:41.342Z,45.2
2019-01-18T11:49:31.415Z,45.4
2019-01-18T11:50:21.482Z,45.4
2019-01-18T11:51:11.215Z,45.6
2019-01-18T11:52:01.614Z,45.6
2019-01-18T11:52:50.774Z,45.8
2019-01-18T11:53:42.578Z,45.8
2019-01-18T11:54:31.452Z,45.9
2019-01-18T11:55:22.050Z,45.9
2019-01-18T11:56:11.875Z,45.9
2019-01-18T11:57:01.942Z,45.9
2019-01-18T11:57:52.004Z,45.8
2019-01-18T11:58:42.009Z,45.8
2019-01-18T11:59:32.067Z,45.6
2019-01-18T12:00:22.129Z,45.4
2019-01-18T12:01:11.909Z,45.2
2019-01-18T12:02:01.958Z,45
2019-01-18T12:02:52.021Z,45
2019-01-18T12:03:42.604Z,45
2019-01-18T12:04:32.151Z,45
2019-01-18T12:05:22.507Z,45.1
2019-01-18T12:07:43.789Z,45.1
2019-01-18T12:08:34.411Z,45.1
2019-01-18T12:09:24.731Z,45.4
2019-01-18T12:10:14.511Z,45.6
2019-01-18T12:11:04.871Z,45.9
2019-01-18T12:11:54.891Z,46.2
2019-01-18T12:12:44.119Z,46.3
2019-01-18T12:13:34.471Z,46.3
2019-01-18T12:14:25.138Z,46.4
2019-01-18T12:15:14.299Z,46.5
2019-01-18T12:16:04.086Z,46.7
2019-01-18T12:16:55.016Z,46.9
2019-01-18T12:17:45.034Z,47.2
2019-01-18T12:18:35.088Z,47.4
2019-01-18T12:19:24.576Z,47.5
2019-01-18T12:20:14.924Z,47.6
2019-01-18T12:21:04.160Z,47.6
2019-01-18T12:21:54.750Z,47.6
2019-01-18T12:22:45.395Z,47.5
2019-01-18T12:23:34.853Z,47.4
2019-01-18T12:24:24.930Z,47.3
2019-01-18T12:25:15.541Z,47.1
2019-01-18T12:26:05.360Z,47
2019-01-18T12:26:55.645Z,46.9
2019-01-18T12:27:44.908Z,46.8
2019-01-18T12:28:35.480Z,46.8
2019-01-18T12:29:27.409Z,46.8
2019-01-18T12:30:15.664Z,46.8
2019-01-18T12:31:06.211Z,46.7
2019-01-18T12:31:55.291Z,46.5
2019-01-18T12:32:45.293Z,46.4
2019-01-18T12:33:35.343Z,46.2
2019-01-18T12:34:25.398Z,46.1
2019-01-18T12:35:14.906Z,46.1
2019-01-18T12:36:04.975Z,46.2
2019-01-18T12:37:03.195Z,46.3
2019-01-18T12:37:45.928Z,46.3
2019-01-18T12:38:35.706Z,46.2
2019-01-18T12:39:26.509Z,46.1
2019-01-18T12:40:16.328Z,46
2019-01-18T12:41:05.525Z,45.9
2019-01-18T12:41:56.401Z,45.8
2019-01-18T12:42:46.182Z,45.6
2019-01-18T12:43:36.517Z,45.4
2019-01-18T12:44:27.152Z,45.2
2019-01-18T12:45:15.808Z,45
2019-01-18T12:46:06.142Z,44.8
2019-01-18T12:46:56.480Z,44.7
2019-01-18T12:47:46.804Z,44.6
2019-01-18T12:48:36.583Z,44.4
2019-01-18T12:49:26.935Z,44.4
2019-01-18T12:50:17.522Z,44.3
2019-01-18T12:51:08.807Z,44.1
2019-01-18T12:51:57.082Z,43.9
2019-01-18T12:52:47.135Z,43.8
2019-01-18T12:53:37.192Z,43.7
2019-01-18T12:54:27.837Z,43.6
2019-01-18T12:55:17.622Z,43.6
2019-01-18T12:56:07.646Z,43.5
2019-01-18T12:56:57.409Z,43.4
2019-01-18T12:57:46.929Z,43.4
2019-01-18T12:58:37.544Z,43.3
2019-01-18T12:59:27.942Z,43.3
2019-01-18T13:00:17.761Z,43.3
2019-01-18T13:01:07.706Z,43.2
2019-01-18T13:01:57.824Z,43.2
2019-01-18T13:02:48.109Z,43.2
2019-01-18T13:03:38.161Z,43.1
2019-01-18T13:04:28.001Z,43.2
2019-01-18T13:05:17.549Z,43.1
2019-01-18T13:06:08.049Z,43.1
2019-01-18T13:06:57.892Z,43
2019-01-18T13:07:47.653Z,42.9
2019-01-18T13:08:39.283Z,42.8
2019-01-18T13:09:28.296Z,42.8
2019-01-18T13:10:18.161Z,42.7
2019-01-18T13:11:08.156Z,42.6
2019-01-18T13:11:59.052Z,42.5
2019-01-18T13:12:48.606Z,42.4
2019-01-18T13:13:37.771Z,42.3
2019-01-18T13:14:28.673Z,42.3
2019-01-18T13:15:18.718Z,42.1
2019-01-18T13:16:09.113Z,42.1
2019-01-18T13:16:59.404Z,42
2019-01-18T13:17:49.131Z,41.9
2019-01-18T13:18:38.938Z,41.9
2019-01-18T13:19:29.043Z,41.9
2019-01-18T13:20:19.053Z,41.9
2019-01-18T13:21:08.843Z,41.9
2019-01-18T13:21:58.593Z,41.9
2019-01-18T13:22:49.257Z,41.8
2019-01-18T13:23:39.272Z,41.6
2019-01-18T13:24:29.360Z,41.4
2019-01-18T13:25:19.145Z,41.3
2019-01-18T13:26:09.800Z,41.2
2019-01-18T13:26:58.980Z,41.1
2019-01-18T13:27:50.118Z,41
2019-01-18T13:28:39.621Z,41
2019-01-18T13:29:29.702Z,40.9
2019-01-18T13:30:20.320Z,40.8
2019-01-18T13:31:09.490Z,40.8
2019-01-18T13:32:00.131Z,40.7
2019-01-18T13:32:50.197Z,40.6
2019-01-18T13:33:39.967Z,40.6
2019-01-18T13:34:29.779Z,40.5
2019-01-18T13:35:19.405Z,40.5
2019-01-18T13:36:09.860Z,40.4
2019-01-18T13:36:59.944Z,40.5
2019-01-18T13:37:50.811Z,40.4
2019-01-18T13:38:40.027Z,40.4
2019-01-18T13:39:30.125Z,40.4
2019-01-18T13:40:20.189Z,40.3
2019-01-18T13:41:10.212Z,40.3
2019-01-18T13:42:01.904Z,40.2
2019-01-18T13:42:50.341Z,40.2
2019-01-18T13:43:40.424Z,40.1